createdAt,value
2022-11-28T00:01:34.778Z,101306.16
2022-11-28T00:04:01.903Z,101319.28
2022-11-28T00:06:29.438Z,101320.97
2022-11-28T00:08:59.866Z,101304.13
2022-11-28T00:11:27.812Z,101340.16
2022-11-28T00:13:55.660Z,101325.22
2022-11-28T00:16:24.244Z,101312.25
2022-11-28T00:18:53.183Z,101313.88
2022-11-28T00:21:21.078Z,101314.75
2022-11-28T00:23:50.408Z,101320.81
2022-11-28T00:26:29.715Z,101315.59
2022-11-28T00:28:58.332Z,101320.59
2022-11-28T00:31:31.474Z,101316.34
2022-11-28T00:33:59.886Z,101319.81
2022-11-28T00:36:27.236Z,101334.56
2022-11-28T00:38:54.514Z,101324.88
2022-11-28T00:41:29.017Z,101311.56
2022-11-28T00:43:57.626Z,101338.88
2022-11-28T00:46:25.520Z,101334.44
2022-11-28T00:48:53.415Z,101332.78
2022-11-28T00:51:24.043Z,101318.81
2022-11-28T00:53:55.173Z,101297.81
2022-11-28T00:56:26.414Z,101293.31
2022-11-28T00:59:00.556Z,101301.66
2022-11-28T01:01:37.628Z,101322.56
2022-11-28T01:04:09.165Z,101331.28
2022-11-28T01:06:40.234Z,101330.47
2022-11-28T01:09:11.658Z,101304.91
2022-11-28T01:11:41.151Z,101314.84
2022-11-28T01:14:09.554Z,101336.81
2022-11-28T01:16:36.952Z,101324.38
2022-11-28T01:19:05.288Z,101327.78
2022-11-28T01:21:33.139Z,101316.16
2022-11-28T01:24:00.760Z,101314.44
2022-11-28T01:26:30.251Z,101313.31
2022-11-28T01:28:59.342Z,101311.22
2022-11-28T01:31:29.908Z,101332.19
2022-11-28T01:33:58.099Z,101325.91
2022-11-28T01:36:26.203Z,101302.00
2022-11-28T01:38:55.220Z,101308.41
2022-11-28T01:41:26.109Z,101283.56
2022-11-28T01:44:07.324Z,101293.84
2022-11-28T01:46:36.713Z,101334.38
2022-11-28T01:49:14.769Z,101337.78
2022-11-28T01:51:47.935Z,101338.63
2022-11-28T01:54:18.109Z,101334.06
2022-11-28T01:56:56.686Z,101328.81
2022-11-28T01:59:27.881Z,101341.72
2022-11-28T02:01:55.326Z,101354.03
2022-11-28T02:04:26.291Z,101359.06
2022-11-28T02:06:54.308Z,101351.22
2022-11-28T02:09:21.760Z,101353.84
2022-11-28T02:12:10.248Z,101359.00
2022-11-28T02:14:50.465Z,101361.44
2022-11-28T02:17:42.665Z,101369.22
2022-11-28T02:20:25.302Z,101357.84
2022-11-28T02:23:02.070Z,101326.88
2022-11-28T02:26:03.483Z,101363.06
2022-11-28T02:28:36.864Z,101369.06
2022-11-28T02:31:18.236Z,101369.84
2022-11-28T02:34:00.238Z,101357.53
2022-11-28T02:36:39.763Z,101379.25
2022-11-28T02:39:29.285Z,101378.41
2022-11-28T02:42:23.475Z,101368.50
2022-11-28T02:44:50.858Z,101351.59
2022-11-28T02:47:28.096Z,101383.31
2022-11-28T02:50:05.596Z,101377.13
2022-11-28T02:52:50.224Z,101372.59
2022-11-28T02:55:18.521Z,101357.50
2022-11-28T02:57:51.974Z,101376.69
2022-11-28T03:00:31.396Z,101370.47
2022-11-28T03:03:24.786Z,101365.91
2022-11-28T03:06:02.532Z,101358.75
2022-11-28T03:08:45.184Z,101375.03
2022-11-28T03:11:49.118Z,101361.50
2022-11-28T03:14:25.167Z,101354.53
2022-11-28T03:17:17.443Z,101356.84
2022-11-28T03:20:08.907Z,101359.63
2022-11-28T03:22:55.241Z,101367.53
2022-11-28T03:25:44.235Z,101337.75
2022-11-28T03:28:31.401Z,101365.00
2022-11-28T03:31:10.782Z,101373.16
2022-11-28T03:33:41.376Z,101376.38
2022-11-28T03:36:22.294Z,101379.09
2022-11-28T03:38:55.002Z,101380.81
2022-11-28T03:41:30.175Z,101383.63
2022-11-28T03:43:59.733Z,101354.63
2022-11-28T03:46:34.545Z,101386.69
2022-11-28T03:49:04.440Z,101395.75
2022-11-28T03:51:33.955Z,101396.53
2022-11-28T03:54:21.419Z,101393.13
2022-11-28T03:57:13.426Z,101389.66
2022-11-28T03:59:43.414Z,101405.38
2022-11-28T04:02:25.767Z,101396.75
2022-11-28T04:04:56.134Z,101402.88
2022-11-28T04:07:29.356Z,101383.38
2022-11-28T04:10:01.564Z,101395.81
2022-11-28T04:12:51.369Z,101398.47
2022-11-28T04:15:31.056Z,101410.81
2022-11-28T04:18:17.983Z,101412.31
2022-11-28T04:21:07.644Z,101412.13
2022-11-28T04:23:38.218Z,101424.56
2022-11-28T04:26:14.907Z,101433.38
2022-11-28T04:28:43.367Z,101437.84
2022-11-28T04:31:10.971Z,101439.53
2022-11-28T04:33:44.473Z,101458.94
2022-11-28T04:36:13.253Z,101467.66
2022-11-28T04:38:42.912Z,101449.16
2022-11-28T04:41:18.913Z,101446.41
2022-11-28T04:43:53.039Z,101423.78
2022-11-28T04:46:38.026Z,101422.00
2022-11-28T04:49:05.546Z,101406.31
2022-11-28T04:51:58.966Z,101402.91
2022-11-28T04:54:49.243Z,101409.81
2022-11-28T04:57:27.532Z,101412.34
2022-11-28T04:59:57.982Z,101424.72
2022-11-28T05:02:31.601Z,101423.72
2022-11-28T05:05:02.159Z,101426.56
2022-11-28T05:07:29.464Z,101429.88
2022-11-28T05:09:58.701Z,101431.78
2022-11-28T05:12:26.231Z,101428.88
2022-11-28T05:14:53.639Z,101435.81
2022-11-28T05:17:21.075Z,101445.47
2022-11-28T05:19:48.111Z,101438.50
2022-11-28T05:22:15.856Z,101454.38
2022-11-28T05:24:43.454Z,101456.75
2022-11-28T05:27:11.764Z,101460.97
2022-11-28T05:29:46.887Z,101462.00
2022-11-28T05:32:18.190Z,101448.88
2022-11-28T05:34:47.766Z,101461.13
2022-11-28T05:37:18.564Z,101465.47
2022-11-28T05:39:50.256Z,101461.91
2022-11-28T05:42:18.620Z,101456.97
2022-11-28T05:44:46.124Z,101438.38
2022-11-28T05:47:13.344Z,101449.75
2022-11-28T05:49:40.739Z,101442.56
2022-11-28T05:52:09.049Z,101406.44
2022-11-28T05:54:36.170Z,101436.06
2022-11-28T05:57:03.534Z,101446.38
2022-11-28T05:59:30.901Z,101454.84
2022-11-28T06:01:58.352Z,101452.88
2022-11-28T06:04:25.794Z,101455.34
2022-11-28T06:06:53.475Z,101459.63
2022-11-28T06:09:24.610Z,101462.22
2022-11-28T06:11:53.748Z,101439.22
2022-11-28T06:14:20.995Z,101460.47
2022-11-28T06:16:48.736Z,101460.16
2022-11-28T06:19:16.429Z,101459.91
2022-11-28T06:21:43.880Z,101463.41
2022-11-28T06:24:11.902Z,101456.97
2022-11-28T06:26:39.186Z,101450.63
2022-11-28T06:29:06.673Z,101462.13
2022-11-28T06:31:34.475Z,101460.75
2022-11-28T06:34:01.868Z,101454.38
2022-11-28T06:36:31.459Z,101467.22
2022-11-28T06:38:58.723Z,101471.66
2022-11-28T06:41:25.922Z,101479.38
2022-11-28T06:43:53.446Z,101464.41
2022-11-28T06:46:22.345Z,101467.22
2022-11-28T06:48:51.202Z,101463.72
2022-11-28T06:51:19.233Z,101446.13
2022-11-28T06:53:46.907Z,101425.16
2022-11-28T06:56:17.661Z,101439.13
2022-11-28T06:58:46.467Z,101450.50
2022-11-28T07:01:20.089Z,101455.66
2022-11-28T07:03:49.108Z,101447.63
2022-11-28T07:06:18.819Z,101449.09
2022-11-28T07:08:46.888Z,101461.38
2022-11-28T07:11:17.354Z,101462.06
2022-11-28T07:13:48.371Z,101464.25
2022-11-28T07:16:30.241Z,101441.22
2022-11-28T07:18:59.580Z,101457.06
2022-11-28T07:21:28.157Z,101467.59
2022-11-28T07:23:55.482Z,101470.06
2022-11-28T07:26:23.153Z,101465.63
2022-11-28T07:28:51.930Z,101482.06
2022-11-28T07:31:22.124Z,101477.66
2022-11-28T07:33:50.897Z,101479.81
2022-11-28T07:36:21.267Z,101483.50
2022-11-28T07:38:54.723Z,101475.84
2022-11-28T07:41:26.459Z,101490.97
2022-11-28T07:43:57.226Z,101494.13
2022-11-28T07:46:26.228Z,101495.00
2022-11-28T07:48:53.733Z,101490.28
2022-11-28T07:51:24.305Z,101494.63
2022-11-28T07:53:53.466Z,101482.28
2022-11-28T07:56:25.265Z,101503.72
2022-11-28T07:58:53.482Z,101497.69
2022-11-28T08:01:24.682Z,101492.22
2022-11-28T08:03:53.364Z,101492.34
2022-11-28T08:06:22.638Z,101504.81
2022-11-28T08:08:50.684Z,101514.28
2022-11-28T08:11:20.947Z,101510.50
2022-11-28T08:13:49.427Z,101502.75
2022-11-28T08:16:20.256Z,101507.19
2022-11-28T08:18:49.487Z,101506.31
2022-11-28T08:21:20.285Z,101501.59
2022-11-28T08:23:47.759Z,101505.56
2022-11-28T08:26:17.505Z,101506.66
2022-11-28T08:28:45.388Z,101496.88
2022-11-28T08:31:24.492Z,101499.38
2022-11-28T08:33:52.955Z,101487.91
2022-11-28T08:36:21.050Z,101498.25
2022-11-28T08:39:03.532Z,101496.00
2022-11-28T08:41:37.247Z,101503.09
2022-11-28T08:44:04.614Z,101510.44
2022-11-28T08:46:31.922Z,101509.75
2022-11-28T08:49:04.214Z,101518.28
2022-11-28T08:51:32.249Z,101526.75
2022-11-28T08:54:00.364Z,101509.47
2022-11-28T08:56:28.665Z,101487.66
2022-11-28T08:58:56.778Z,101494.59
2022-11-28T09:01:26.425Z,101492.91
2022-11-28T09:03:55.289Z,101497.41
2022-11-28T09:06:24.503Z,101490.09
2022-11-28T09:08:52.882Z,101494.59
2022-11-28T09:11:22.680Z,101501.44
2022-11-28T09:13:50.969Z,101490.84
2022-11-28T09:16:18.398Z,101504.13
2022-11-28T09:18:45.649Z,101490.84
2022-11-28T09:21:15.250Z,101507.06
2022-11-28T09:23:44.730Z,101503.56
2022-11-28T09:26:14.646Z,101493.25
2022-11-28T09:28:42.561Z,101501.22
2022-11-28T09:31:11.035Z,101496.91
2022-11-28T09:33:39.015Z,101504.84
2022-11-28T09:36:11.679Z,101511.16
2022-11-28T09:38:40.113Z,101506.06
2022-11-28T09:41:28.921Z,101512.72
2022-11-28T09:44:18.531Z,101505.72
2022-11-28T09:46:48.674Z,101502.56
2022-11-28T09:49:27.317Z,101520.53
2022-11-28T09:52:05.293Z,101510.22
2022-11-28T09:54:51.346Z,101505.75
2022-11-28T09:57:39.479Z,101482.75
2022-11-28T10:00:17.182Z,101497.06
2022-11-28T10:02:51.598Z,101478.56
2022-11-28T10:05:43.415Z,101498.00
2022-11-28T10:08:37.296Z,101506.44
2022-11-28T10:11:07.183Z,101466.59
2022-11-28T10:14:10.466Z,101492.25
2022-11-28T10:16:55.816Z,101496.69
2022-11-28T10:22:29.685Z,101497.88
2022-11-28T10:25:01.124Z,101467.78
2022-11-28T10:27:35.914Z,101492.03
2022-11-28T10:30:11.713Z,101499.84
2022-11-28T10:32:42.946Z,101499.97
2022-11-28T10:35:28.969Z,101497.03
2022-11-28T10:37:57.494Z,101502.63
2022-11-28T10:40:42.271Z,101493.94
2022-11-28T10:43:32.685Z,101503.66
2022-11-28T10:46:24.557Z,101498.97
2022-11-28T10:49:07.958Z,101488.81
2022-11-28T10:51:44.466Z,101487.25
2022-11-28T10:54:36.856Z,101485.41
2022-11-28T10:57:17.853Z,101473.38
2022-11-28T11:00:01.662Z,101474.94
2022-11-28T11:02:52.699Z,101480.41
2022-11-28T11:05:24.675Z,101472.09
2022-11-28T11:08:02.787Z,101477.44
2022-11-28T11:10:49.588Z,101468.59
2022-11-28T11:13:21.683Z,101473.81
2022-11-28T11:16:03.351Z,101458.97
2022-11-28T11:18:35.391Z,101455.34
2022-11-28T11:21:09.108Z,101461.94
2022-11-28T11:23:38.431Z,101457.72
2022-11-28T11:26:10.606Z,101449.97
2022-11-28T11:28:47.549Z,101441.25
2022-11-28T11:31:44.915Z,101447.38
2022-11-28T11:34:18.869Z,101442.28
2022-11-28T11:36:46.891Z,101437.06
2022-11-28T11:39:13.984Z,101437.25
2022-11-28T11:41:42.339Z,101424.16
2022-11-28T11:44:15.969Z,101435.75
2022-11-28T11:47:02.088Z,101408.56
2022-11-28T11:49:38.484Z,101437.25
2022-11-28T11:52:26.300Z,101418.38
2022-11-28T11:54:58.552Z,101426.44
2022-11-28T11:57:38.444Z,101418.72
2022-11-28T12:00:19.418Z,101412.56
2022-11-28T12:02:56.702Z,101401.91
2022-11-28T12:05:46.632Z,101418.00
2022-11-28T12:08:55.910Z,101422.56
2022-11-28T12:11:34.453Z,101423.63
2022-11-28T12:14:39.016Z,101421.44
2022-11-28T12:17:46.862Z,101431.81
2022-11-28T12:20:20.976Z,101398.31
2022-11-28T12:23:17.025Z,101418.66
2022-11-28T12:26:03.566Z,101423.09
2022-11-28T12:28:47.687Z,101418.63
2022-11-28T12:31:37.035Z,101401.69
2022-11-28T12:34:30.677Z,101391.19
2022-11-28T12:37:14.185Z,101426.22
2022-11-28T12:39:51.761Z,101426.41
2022-11-28T12:42:44.724Z,101423.78
2022-11-28T12:45:47.908Z,101434.47
2022-11-28T12:48:51.660Z,101423.41
2022-11-28T12:51:33.463Z,101419.47
2022-11-28T12:54:37.623Z,101417.09
2022-11-28T12:57:23.591Z,101415.66
2022-11-28T13:00:06.694Z,101384.03
2022-11-28T13:02:50.911Z,101396.28
2022-11-28T13:05:42.893Z,101407.19
2022-11-28T13:08:46.510Z,101437.06
2022-11-28T13:11:27.169Z,101424.50
2022-11-28T13:14:10.112Z,101454.66
2022-11-28T13:16:50.360Z,101442.94
2022-11-28T13:19:20.607Z,101446.97
2022-11-28T13:22:00.226Z,101431.72
2022-11-28T13:25:09.231Z,101425.25
2022-11-28T13:28:02.942Z,101399.75
2022-11-28T13:30:41.127Z,101424.09
2022-11-28T13:33:19.436Z,101408.69
2022-11-28T13:35:48.122Z,101415.53
2022-11-28T13:38:36.293Z,101410.47
2022-11-28T13:41:43.083Z,101406.03
2022-11-28T13:44:23.063Z,101425.41
2022-11-28T13:46:51.511Z,101423.63
2022-11-28T13:49:29.956Z,101424.22
2022-11-28T13:52:19.162Z,101451.16
2022-11-28T13:54:53.247Z,101449.44
2022-11-28T13:57:38.976Z,101440.75
2022-11-28T14:00:24.139Z,101447.16
2022-11-28T14:03:00.427Z,101433.09
2022-11-28T14:05:35.180Z,101449.66
2022-11-28T14:08:05.123Z,101457.38
2022-11-28T14:10:58.916Z,101454.53
2022-11-28T14:13:32.730Z,101418.75
2022-11-28T14:16:25.339Z,101408.09
2022-11-28T14:19:13.119Z,101430.94
2022-11-28T14:21:49.635Z,101422.91
2022-11-28T14:24:32.607Z,101421.13
2022-11-28T14:27:03.144Z,101408.75
2022-11-28T14:29:40.246Z,101389.28
2022-11-28T14:32:30.228Z,101419.41
2022-11-28T14:35:00.616Z,101415.91
2022-11-28T14:37:29.048Z,101400.75
2022-11-28T14:39:58.655Z,101424.72
2022-11-28T14:42:59.052Z,101406.09
2022-11-28T14:45:41.594Z,101440.56
2022-11-28T14:48:24.572Z,101432.47
2022-11-28T14:50:59.312Z,101448.28
2022-11-28T14:53:38.340Z,101446.53
2022-11-28T14:56:29.341Z,101445.50
2022-11-28T14:59:01.458Z,101446.31
2022-11-28T15:01:43.965Z,101444.53
2022-11-28T15:04:39.503Z,101427.25
2022-11-28T15:07:37.136Z,101424.63
2022-11-28T15:10:23.132Z,101403.97
2022-11-28T15:13:28.725Z,101448.78
2022-11-28T15:15:56.231Z,101422.22
2022-11-28T15:18:26.097Z,101444.88
2022-11-28T15:21:01.560Z,101456.22
2022-11-28T15:23:35.887Z,101435.66
2022-11-28T15:26:03.841Z,101466.50
2022-11-28T15:28:34.319Z,101476.34
2022-11-28T15:31:06.920Z,101458.53
2022-11-28T15:33:34.516Z,101476.97
2022-11-28T15:36:12.506Z,101470.75
2022-11-28T15:38:43.339Z,101459.84
2022-11-28T15:41:11.388Z,101497.75
2022-11-28T15:43:42.733Z,101477.75
2022-11-28T15:46:34.689Z,101503.97
2022-11-28T15:49:02.860Z,101509.59
2022-11-28T15:51:36.599Z,101513.25
2022-11-28T15:54:27.774Z,101505.81
2022-11-28T15:56:58.960Z,101482.91
2022-11-28T15:59:28.253Z,101495.38
2022-11-28T16:02:00.311Z,101495.31
2022-11-28T16:04:29.126Z,101494.53
2022-11-28T16:06:59.391Z,101484.69
2022-11-28T16:09:35.908Z,101486.16
2022-11-28T16:12:05.705Z,101491.25
2022-11-28T16:14:36.586Z,101458.59
2022-11-28T16:17:10.698Z,101487.66
2022-11-28T16:19:38.926Z,101501.53
2022-11-28T16:22:15.552Z,101473.03
2022-11-28T16:24:52.603Z,101483.34
2022-11-28T16:27:29.425Z,101492.41
2022-11-28T16:29:57.002Z,101497.63
2022-11-28T16:32:39.837Z,101497.47
2022-11-28T16:35:12.715Z,101501.72
2022-11-28T16:37:40.911Z,101506.75
2022-11-28T16:40:17.362Z,101495.22
2022-11-28T16:42:53.683Z,101481.72
2022-11-28T16:45:30.930Z,101484.19
2022-11-28T16:48:08.940Z,101509.69
2022-11-28T16:50:37.655Z,101505.81
2022-11-28T16:53:05.906Z,101509.25
2022-11-28T16:55:34.098Z,101525.22
2022-11-28T16:58:16.604Z,101510.88
2022-11-28T17:00:48.586Z,101526.69
2022-11-28T17:03:46.725Z,101509.72
2022-11-28T17:06:24.244Z,101528.16
2022-11-28T17:08:52.073Z,101525.38
2022-11-28T17:11:23.610Z,101540.19
2022-11-28T17:13:51.826Z,101529.50
2022-11-28T17:16:25.069Z,101536.19
2022-11-28T17:18:52.734Z,101550.53
2022-11-28T17:21:35.135Z,101543.38
2022-11-28T17:24:02.771Z,101551.19
2022-11-28T17:26:30.207Z,101551.47
2022-11-28T17:28:59.261Z,101549.47
2022-11-28T17:31:26.536Z,101557.53
2022-11-28T17:33:53.916Z,101556.78
2022-11-28T17:36:22.732Z,101546.97
2022-11-28T17:38:50.095Z,101548.13
2022-11-28T17:41:17.572Z,101550.75
2022-11-28T17:43:45.443Z,101558.69
2022-11-28T17:46:12.908Z,101554.16
2022-11-28T17:48:40.885Z,101555.81
2022-11-28T17:51:11.174Z,101552.78
2022-11-28T17:53:38.808Z,101552.97
2022-11-28T17:56:06.756Z,101551.28
2022-11-28T17:58:37.758Z,101561.41
2022-11-28T18:01:11.735Z,101561.72
2022-11-28T18:03:40.604Z,101551.28
2022-11-28T18:06:15.706Z,101547.50
2022-11-28T18:08:44.887Z,101569.22
2022-11-28T18:11:13.994Z,101560.03
2022-11-28T18:13:43.805Z,101562.50
2022-11-28T18:16:14.355Z,101566.50
2022-11-28T18:18:41.788Z,101578.53
2022-11-28T18:21:11.099Z,101587.03
2022-11-28T18:23:42.666Z,101579.66
2022-11-28T18:26:14.359Z,101579.88
2022-11-28T18:28:42.039Z,101573.31
2022-11-28T18:31:16.598Z,101581.19
2022-11-28T18:33:44.013Z,101596.69
2022-11-28T18:36:13.657Z,101574.28
2022-11-28T18:38:42.037Z,101592.97
2022-11-28T18:41:09.796Z,101598.22
2022-11-28T18:43:37.650Z,101607.50
2022-11-28T18:46:11.434Z,101597.81
2022-11-28T18:48:40.942Z,101600.41
2022-11-28T18:51:12.041Z,101583.03
2022-11-28T18:53:40.221Z,101604.44
2022-11-28T18:56:08.287Z,101603.88
2022-11-28T18:58:42.213Z,101599.44
2022-11-28T19:01:25.281Z,101611.38
2022-11-28T19:03:56.687Z,101610.22
2022-11-28T19:06:24.770Z,101613.69
2022-11-28T19:08:57.979Z,101610.88
2022-11-28T19:11:26.470Z,101617.63
2022-11-28T19:13:53.921Z,101622.41
2022-11-28T19:16:25.201Z,101603.50
2022-11-28T19:19:00.839Z,101591.84
2022-11-28T19:21:33.113Z,101620.91
2022-11-28T19:24:02.615Z,101620.19
2022-11-28T19:26:34.155Z,101626.94
2022-11-28T19:29:03.941Z,101608.78
2022-11-28T19:31:33.886Z,101629.91
2022-11-28T19:34:04.548Z,101621.97
2022-11-28T19:36:35.447Z,101629.47
2022-11-28T19:39:04.160Z,101628.31
2022-11-28T19:41:32.625Z,101639.59
2022-11-28T19:44:00.369Z,101619.16
2022-11-28T19:46:35.069Z,101610.38
2022-11-28T19:49:14.571Z,101651.69
2022-11-28T19:51:41.839Z,101644.06
2022-11-28T19:54:09.553Z,101638.78
2022-11-28T19:56:37.307Z,101641.63
2022-11-28T19:59:04.631Z,101643.41
2022-11-28T20:01:31.938Z,101646.88
2022-11-28T20:03:59.904Z,101641.53
2022-11-28T20:06:30.318Z,101648.00
2022-11-28T20:09:05.364Z,101641.16
2022-11-28T20:11:37.769Z,101628.88
2022-11-28T20:14:08.970Z,101642.78
2022-11-28T20:16:37.566Z,101648.75
2022-11-28T20:19:06.628Z,101642.44
2022-11-28T20:21:34.871Z,101642.50
2022-11-28T20:24:05.996Z,101643.41
2022-11-28T20:26:38.616Z,101647.47
2022-11-28T20:29:07.047Z,101638.50
2022-11-28T20:31:42.500Z,101650.59
2022-11-28T20:34:10.305Z,101647.72
2022-11-28T20:36:43.835Z,101643.28
2022-11-28T20:39:12.818Z,101663.38
2022-11-28T20:41:40.787Z,101644.09
2022-11-28T20:44:08.653Z,101653.00
2022-11-28T20:46:36.179Z,101653.66
2022-11-28T20:49:06.836Z,101650.00
2022-11-28T20:51:36.492Z,101642.78
2022-11-28T20:54:05.617Z,101661.72
2022-11-28T20:56:57.956Z,101668.91
2022-11-28T20:59:24.492Z,101661.56
2022-11-28T21:01:54.074Z,101658.78
2022-11-28T21:04:21.571Z,101654.41
2022-11-28T21:06:49.727Z,101668.28
2022-11-28T21:09:20.573Z,101646.00
2022-11-28T21:11:58.498Z,101656.72
2022-11-28T21:14:27.342Z,101668.16
2022-11-28T21:16:55.858Z,101660.28
2022-11-28T21:19:26.223Z,101666.28
2022-11-28T21:21:54.999Z,101661.91
2022-11-28T21:24:29.319Z,101671.59
2022-11-28T21:26:57.055Z,101655.19
2022-11-28T21:29:25.204Z,101678.59
2022-11-28T21:31:55.913Z,101672.19
2022-11-28T21:34:24.581Z,101671.97
2022-11-28T21:36:52.243Z,101672.53
2022-11-28T21:39:20.802Z,101668.56
2022-11-28T21:41:53.478Z,101680.91
2022-11-28T21:44:22.435Z,101677.31
2022-11-28T21:46:49.936Z,101685.72
2022-11-28T21:49:17.948Z,101681.44
2022-11-28T21:51:47.372Z,101683.63
2022-11-28T21:54:15.375Z,101690.53
2022-11-28T21:56:45.122Z,101684.22
2022-11-28T21:59:12.836Z,101688.50
2022-11-28T22:01:41.914Z,101682.25
2022-11-28T22:04:11.103Z,101682.25
2022-11-28T22:06:39.409Z,101686.25
2022-11-28T22:09:09.435Z,101677.06
2022-11-28T22:11:38.533Z,101679.72
2022-11-28T22:14:06.370Z,101682.50
2022-11-28T22:16:37.588Z,101690.81
2022-11-28T22:19:06.384Z,101687.94
2022-11-28T22:21:53.415Z,101679.00
2022-11-28T22:24:22.256Z,101692.59
2022-11-28T22:26:49.865Z,101692.59
2022-11-28T22:29:18.516Z,101686.09
2022-11-28T22:31:46.076Z,101690.56
2022-11-28T22:34:13.706Z,101677.44
2022-11-28T22:36:41.157Z,101674.69
2022-11-28T22:39:11.594Z,101677.28
2022-11-28T22:41:39.185Z,101683.44
2022-11-28T22:44:06.523Z,101677.03
2022-11-28T22:46:34.045Z,101675.25
2022-11-28T22:49:02.299Z,101671.59
2022-11-28T22:51:30.974Z,101676.78
2022-11-28T22:54:01.013Z,101675.06
2022-11-28T22:56:31.147Z,101677.66
2022-11-28T22:59:00.061Z,101678.66
2022-11-28T23:01:31.068Z,101675.97
2022-11-28T23:04:03.786Z,101676.88
2022-11-28T23:06:34.876Z,101679.72
2022-11-28T23:09:06.632Z,101678.03
2022-11-28T23:11:37.540Z,101649.66
2022-11-28T23:14:05.424Z,101664.31
2022-11-28T23:16:36.116Z,101672.28
2022-11-28T23:19:10.375Z,101669.22
2022-11-28T23:21:40.334Z,101665.06
2022-11-28T23:24:12.679Z,101667.22
2022-11-28T23:26:40.176Z,101662.09
2022-11-28T23:29:07.878Z,101671.19
2022-11-28T23:31:38.236Z,101662.59
2022-11-28T23:34:05.584Z,101621.72
2022-11-28T23:36:41.878Z,101656.09
2022-11-28T23:39:18.711Z,101667.44
2022-11-28T23:41:46.835Z,101656.19
2022-11-28T23:44:15.409Z,101659.25
2022-11-28T23:46:43.436Z,101670.34
2022-11-28T23:49:11.662Z,101665.75
2022-11-28T23:51:40.854Z,101650.66
2022-11-28T23:54:09.849Z,101662.16
2022-11-28T23:56:39.783Z,101659.50
2022-11-28T23:59:09.033Z,101644.34
